Gainsborough, United Kingdom
Current Conditions -  °F | °C
As of 11:50 AM on Friday 21 Nov 2014 (Local Time) from EGXP Reporting Station
Haze Haze  
Wind Chill: 43°   Ceiling: 2100
Heat Index: 48°   Visibility: 4mi
Dew Point: 43°   Wind: 13mph
Humidity: 82%   Direction: 120°ESE
Pressure: 30.09"   Gusts: NA
Location:  53.38°N, 0.77°W
Report Text: EGXP 211150Z 12011KT 6000 HZ FEW018 BKN021 09/06 Q1019 WHT
Loading
Personal Weather Stations






























Interactive Weather Map New forecast layout! Learn more

10-Day Weather Forecast

Advertisements
Track Severe Weather on mobile